aviador You're here:

LFOJ Decoded Metar

ORLEANS in FRANCE
Report Time2018-05-21 16:30:00
UTC Time2018-05-21 17:00:20
Flight Rules vfr VFR
WindVRB at 02 kt
Visibility9999 m
Phenomena:N/A
Clouds:N/A
Expected CloudBase > 5,200 ft AGL from Temp-Dew spread
CeilingNone
Temp23°C (ISA +9)
Dew Point10°C (44% RH)
AAT22.3°C
QNH1010 hPa
Density Alt1,703 ft
Elevation410 ft
Report Wrong Elevation
Raw Report
LFOJ 211630Z AUTO VRB02KT CAVOK 23/10 Q1010=

Extra information for LFOJ:More info

Metar Taf Metar & Taf Last 4 Metars F.Rules Stats Wind Profile Meteogram Temp Stats Airport Information Weather charts Add Link Nearby VenuesMetar ALERT Operation Metar Decoded Social comments